sensor_id;sensor_type;location;lat;lon;timestamp;temperature;humidity
65472;DHT22;52068;50.710;14.492;2023-07-13T00:00:37;27.29;48.00
65472;DHT22;52068;50.710;14.492;2023-07-13T00:03:03;27.29;48.03
65472;DHT22;52068;50.710;14.492;2023-07-13T00:05:29;27.30;48.03
65472;DHT22;52068;50.710;14.492;2023-07-13T00:07:55;27.27;47.96
65472;DHT22;52068;50.710;14.492;2023-07-13T00:10:21;27.27;47.95
65472;DHT22;52068;50.710;14.492;2023-07-13T00:12:47;27.27;47.95
65472;DHT22;52068;50.710;14.492;2023-07-13T00:15:18;27.26;47.90
65472;DHT22;52068;50.710;14.492;2023-07-13T00:17:49;27.29;47.91
65472;DHT22;52068;50.710;14.492;2023-07-13T00:20:15;27.27;47.99
65472;DHT22;52068;50.710;14.492;2023-07-13T00:22:41;27.29;47.90
65472;DHT22;52068;50.710;14.492;2023-07-13T00:25:06;27.27;47.86
65472;DHT22;52068;50.710;14.492;2023-07-13T00:27:32;27.27;47.75
65472;DHT22;52068;50.710;14.492;2023-07-13T00:29:58;27.30;47.70
65472;DHT22;52068;50.710;14.492;2023-07-13T00:32:24;27.27;47.66
65472;DHT22;52068;50.710;14.492;2023-07-13T00:34:52;27.25;47.93
65472;DHT22;52068;50.710;14.492;2023-07-13T00:37:18;27.19;48.00
65472;DHT22;52068;50.710;14.492;2023-07-13T00:39:43;27.15;48.18
65472;DHT22;52068;50.710;14.492;2023-07-13T00:42:09;27.15;48.21
65472;DHT22;52068;50.710;14.492;2023-07-13T00:44:34;27.17;48.19
65472;DHT22;52068;50.710;14.492;2023-07-13T00:47:00;27.15;48.18
65472;DHT22;52068;50.710;14.492;2023-07-13T00:49:27;27.15;48.01
65472;DHT22;52068;50.710;14.492;2023-07-13T00:51:57;27.17;48.01
65472;DHT22;52068;50.710;14.492;2023-07-13T00:54:37;27.13;48.01
65472;DHT22;52068;50.710;14.492;2023-07-13T00:57:07;27.15;48.06
65472;DHT22;52068;50.710;14.492;2023-07-13T00:59:35;27.10;48.71
65472;DHT22;52068;50.710;14.492;2023-07-13T01:02:02;27.05;49.07
65472;DHT22;52068;50.710;14.492;2023-07-13T01:04:28;27.03;48.85
65472;DHT22;52068;50.710;14.492;2023-07-13T01:06:53;27.07;48.68
65472;DHT22;52068;50.710;14.492;2023-07-13T01:09:19;27.09;48.49
65472;DHT22;52068;50.710;14.492;2023-07-13T01:11:46;27.10;48.28
65472;DHT22;52068;50.710;14.492;2023-07-13T01:14:12;27.10;48.28
65472;DHT22;52068;50.710;14.492;2023-07-13T01:16:39;27.09;48.22
65472;DHT22;52068;50.710;14.492;2023-07-13T01:21:51;27.13;48.29
65472;DHT22;52068;50.710;14.492;2023-07-13T01:24:17;27.13;48.31
65472;DHT22;52068;50.710;14.492;2023-07-13T01:26:43;27.12;48.32
65472;DHT22;52068;50.710;14.492;2023-07-13T01:29:08;27.15;48.40
65472;DHT22;52068;50.710;14.492;2023-07-13T01:31:34;27.13;48.47
65472;DHT22;52068;50.710;14.492;2023-07-13T01:34:00;27.13;48.47
65472;DHT22;52068;50.710;14.492;2023-07-13T01:36:25;27.16;48.49
65472;DHT22;52068;50.710;14.492;2023-07-13T01:38:50;27.15;48.47
65472;DHT22;52068;50.710;14.492;2023-07-13T01:41:16;27.15;48.39
65472;DHT22;52068;50.710;14.492;2023-07-13T01:43:42;27.13;47.89
65472;DHT22;52068;50.710;14.492;2023-07-13T01:46:07;27.07;48.22
65472;DHT22;52068;50.710;14.492;2023-07-13T01:48:32;27.02;48.30
65472;DHT22;52068;50.710;14.492;2023-07-13T01:50:58;26.92;47.05
65472;DHT22;52068;50.710;14.492;2023-07-13T01:53:23;26.84;47.88
65472;DHT22;52068;50.710;14.492;2023-07-13T01:55:48;26.81;48.21
65472;DHT22;52068;50.710;14.492;2023-07-13T01:58:14;26.75;48.44
65472;DHT22;52068;50.710;14.492;2023-07-13T02:00:39;26.75;48.45
65472;DHT22;52068;50.710;14.492;2023-07-13T02:03:05;26.69;48.50
65472;DHT22;52068;50.710;14.492;2023-07-13T02:05:30;26.65;48.87
65472;DHT22;52068;50.710;14.492;2023-07-13T02:07:55;26.62;48.66
65472;DHT22;52068;50.710;14.492;2023-07-13T02:10:21;26.59;48.73
65472;DHT22;52068;50.710;14.492;2023-07-13T02:12:48;26.58;48.68
65472;DHT22;52068;50.710;14.492;2023-07-13T02:15:14;26.51;48.41
65472;DHT22;52068;50.710;14.492;2023-07-13T02:17:40;26.55;48.46
65472;DHT22;52068;50.710;14.492;2023-07-13T02:20:06;26.49;48.85
65472;DHT22;52068;50.710;14.492;2023-07-13T02:22:33;26.51;48.77
65472;DHT22;52068;50.710;14.492;2023-07-13T02:24:59;26.48;49.08
65472;DHT22;52068;50.710;14.492;2023-07-13T02:27:24;26.47;49.53
65472;DHT22;52068;50.710;14.492;2023-07-13T02:29:50;26.43;49.72
65472;DHT22;52068;50.710;14.492;2023-07-13T02:32:17;26.41;49.73
65472;DHT22;52068;50.710;14.492;2023-07-13T02:34:42;26.38;49.84
65472;DHT22;52068;50.710;14.492;2023-07-13T02:37:08;26.31;49.88
65472;DHT22;52068;50.710;14.492;2023-07-13T02:39:33;26.30;49.84
65472;DHT22;52068;50.710;14.492;2023-07-13T02:41:59;26.30;50.10
65472;DHT22;52068;50.710;14.492;2023-07-13T02:44:25;26.27;50.30
65472;DHT22;52068;50.710;14.492;2023-07-13T02:46:51;26.28;50.20
65472;DHT22;52068;50.710;14.492;2023-07-13T02:49:16;26.23;50.43
65472;DHT22;52068;50.710;14.492;2023-07-13T02:51:41;26.21;50.63
65472;DHT22;52068;50.710;14.492;2023-07-13T02:54:07;26.16;50.75
65472;DHT22;52068;50.710;14.492;2023-07-13T02:56:33;26.18;50.81
65472;DHT22;52068;50.710;14.492;2023-07-13T02:58:59;26.14;50.93
65472;DHT22;52068;50.710;14.492;2023-07-13T03:01:24;26.10;50.87
65472;DHT22;52068;50.710;14.492;2023-07-13T03:03:51;26.08;50.93
65472;DHT22;52068;50.710;14.492;2023-07-13T03:06:17;26.03;51.26
65472;DHT22;52068;50.710;14.492;2023-07-13T03:08:43;26.03;51.34
65472;DHT22;52068;50.710;14.492;2023-07-13T03:11:13;25.98;51.11
65472;DHT22;52068;50.710;14.492;2023-07-13T03:13:40;25.98;51.14
65472;DHT22;52068;50.710;14.492;2023-07-13T03:16:06;25.92;51.35
65472;DHT22;52068;50.710;14.492;2023-07-13T03:18:32;25.93;51.20
65472;DHT22;52068;50.710;14.492;2023-07-13T03:20:57;25.89;51.38
65472;DHT22;52068;50.710;14.492;2023-07-13T03:23:23;25.90;51.42
65472;DHT22;52068;50.710;14.492;2023-07-13T03:25:49;25.87;51.44
65472;DHT22;52068;50.710;14.492;2023-07-13T03:28:15;25.84;51.41
65472;DHT22;52068;50.710;14.492;2023-07-13T03:30:41;25.82;51.34
65472;DHT22;52068;50.710;14.492;2023-07-13T03:33:07;25.79;51.46
65472;DHT22;52068;50.710;14.492;2023-07-13T03:35:34;25.79;51.36
65472;DHT22;52068;50.710;14.492;2023-07-13T03:37:59;25.77;51.42
65472;DHT22;52068;50.710;14.492;2023-07-13T03:40:27;25.75;51.76
65472;DHT22;52068;50.710;14.492;2023-07-13T03:42:53;25.73;51.39
65472;DHT22;52068;50.710;14.492;2023-07-13T03:45:19;25.75;51.63
65472;DHT22;52068;50.710;14.492;2023-07-13T03:47:44;25.69;51.45
65472;DHT22;52068;50.710;14.492;2023-07-13T03:50:10;25.69;51.28
65472;DHT22;52068;50.710;14.492;2023-07-13T03:52:35;25.66;51.64
65472;DHT22;52068;50.710;14.492;2023-07-13T03:55:01;25.63;52.08
65472;DHT22;52068;50.710;14.492;2023-07-13T03:57:26;25.58;52.06
65472;DHT22;52068;50.710;14.492;2023-07-13T03:59:51;25.58;52.29
65472;DHT22;52068;50.710;14.492;2023-07-13T04:02:17;25.55;52.07
65472;DHT22;52068;50.710;14.492;2023-07-13T04:04:43;25.52;52.15
65472;DHT22;52068;50.710;14.492;2023-07-13T04:07:09;25.52;52.16
65472;DHT22;52068;50.710;14.492;2023-07-13T04:09:35;25.47;52.20
65472;DHT22;52068;50.710;14.492;2023-07-13T04:12:00;25.47;52.42
65472;DHT22;52068;50.710;14.492;2023-07-13T04:14:26;25.46;52.42
65472;DHT22;52068;50.710;14.492;2023-07-13T04:16:51;25.47;52.56
65472;DHT22;52068;50.710;14.492;2023-07-13T04:19:16;25.47;52.48
65472;DHT22;52068;50.710;14.492;2023-07-13T04:21:42;25.46;52.61
65472;DHT22;52068;50.710;14.492;2023-07-13T04:24:08;25.45;52.64
65472;DHT22;52068;50.710;14.492;2023-07-13T04:26:34;25.45;52.81
65472;DHT22;52068;50.710;14.492;2023-07-13T04:29:01;25.45;52.70
65472;DHT22;52068;50.710;14.492;2023-07-13T04:31:29;25.43;52.65
65472;DHT22;52068;50.710;14.492;2023-07-13T04:33:54;25.42;52.82
65472;DHT22;52068;50.710;14.492;2023-07-13T04:36:20;25.43;52.87
65472;DHT22;52068;50.710;14.492;2023-07-13T04:38:45;25.41;52.89
65472;DHT22;52068;50.710;14.492;2023-07-13T04:41:11;25.41;53.12
65472;DHT22;52068;50.710;14.492;2023-07-13T04:43:37;25.38;53.10
65472;DHT22;52068;50.710;14.492;2023-07-13T04:46:07;25.41;53.26
65472;DHT22;52068;50.710;14.492;2023-07-13T04:48:33;25.39;53.35
65472;DHT22;52068;50.710;14.492;2023-07-13T04:50:59;25.41;53.24
65472;DHT22;52068;50.710;14.492;2023-07-13T04:53:26;25.32;53.31
65472;DHT22;52068;50.710;14.492;2023-07-13T04:55:51;25.36;53.35
65472;DHT22;52068;50.710;14.492;2023-07-13T04:58:17;25.35;53.18
65472;DHT22;52068;50.710;14.492;2023-07-13T05:00:42;25.34;53.15
65472;DHT22;52068;50.710;14.492;2023-07-13T05:03:08;25.34;53.06
65472;DHT22;52068;50.710;14.492;2023-07-13T05:05:33;25.32;53.12
65472;DHT22;52068;50.710;14.492;2023-07-13T05:07:59;25.31;53.24
65472;DHT22;52068;50.710;14.492;2023-07-13T05:10:25;25.29;53.10
65472;DHT22;52068;50.710;14.492;2023-07-13T05:12:50;25.26;53.24
65472;DHT22;52068;50.710;14.492;2023-07-13T05:15:16;25.29;53.46
65472;DHT22;52068;50.710;14.492;2023-07-13T05:17:49;25.32;53.50
65472;DHT22;52068;50.710;14.492;2023-07-13T05:20:16;25.32;53.54
65472;DHT22;52068;50.710;14.492;2023-07-13T05:22:43;25.35;53.43
65472;DHT22;52068;50.710;14.492;2023-07-13T05:25:08;25.39;53.45
65472;DHT22;52068;50.710;14.492;2023-07-13T05:27:35;25.47;53.42
65472;DHT22;52068;50.710;14.492;2023-07-13T05:30:01;25.56;53.31
65472;DHT22;52068;50.710;14.492;2023-07-13T05:32:27;25.66;53.15
65472;DHT22;52068;50.710;14.492;2023-07-13T05:34:52;25.69;52.96
65472;DHT22;52068;50.710;14.492;2023-07-13T05:37:18;25.80;52.75
65472;DHT22;52068;50.710;14.492;2023-07-13T05:39:43;25.86;52.54
65472;DHT22;52068;50.710;14.492;2023-07-13T05:42:08;25.90;52.41
65472;DHT22;52068;50.710;14.492;2023-07-13T05:44:34;25.92;52.29
65472;DHT22;52068;50.710;14.492;2023-07-13T05:46:59;25.97;52.21
65472;DHT22;52068;50.710;14.492;2023-07-13T05:49:25;26.00;51.98
65472;DHT22;52068;50.710;14.492;2023-07-13T05:51:50;26.03;52.02
65472;DHT22;52068;50.710;14.492;2023-07-13T05:54:15;26.01;51.56
65472;DHT22;52068;50.710;14.492;2023-07-13T05:56:41;26.01;51.69
65472;DHT22;52068;50.710;14.492;2023-07-13T05:59:06;25.93;51.64
65472;DHT22;52068;50.710;14.492;2023-07-13T06:01:32;25.96;51.93
65472;DHT22;52068;50.710;14.492;2023-07-13T06:03:58;26.00;51.92
65472;DHT22;52068;50.710;14.492;2023-07-13T06:06:23;26.03;51.95
65472;DHT22;52068;50.710;14.492;2023-07-13T06:08:48;26.04;51.89
65472;DHT22;52068;50.710;14.492;2023-07-13T06:11:17;26.06;52.08
65472;DHT22;52068;50.710;14.492;2023-07-13T06:13:43;26.07;52.43
65472;DHT22;52068;50.710;14.492;2023-07-13T06:16:09;26.04;52.70
65472;DHT22;52068;50.710;14.492;2023-07-13T06:18:35;26.01;52.63
65472;DHT22;52068;50.710;14.492;2023-07-13T06:21:09;26.00;52.61
65472;DHT22;52068;50.710;14.492;2023-07-13T06:23:35;25.98;52.73
65472;DHT22;52068;50.710;14.492;2023-07-13T06:26:00;25.98;52.74
65472;DHT22;52068;50.710;14.492;2023-07-13T06:28:26;26.00;52.42
65472;DHT22;52068;50.710;14.492;2023-07-13T06:30:51;26.01;52.45
65472;DHT22;52068;50.710;14.492;2023-07-13T06:33:16;26.04;52.33
65472;DHT22;52068;50.710;14.492;2023-07-13T06:35:42;26.03;52.39
65472;DHT22;52068;50.710;14.492;2023-07-13T06:38:07;26.04;52.42
65472;DHT22;52068;50.710;14.492;2023-07-13T06:40:33;26.01;52.19
65472;DHT22;52068;50.710;14.492;2023-07-13T06:42:58;26.03;52.19
65472;DHT22;52068;50.710;14.492;2023-07-13T06:45:24;26.03;52.22
65472;DHT22;52068;50.710;14.492;2023-07-13T06:47:49;26.03;52.31
65472;DHT22;52068;50.710;14.492;2023-07-13T06:50:15;26.03;52.24
65472;DHT22;52068;50.710;14.492;2023-07-13T06:52:40;26.01;52.15
65472;DHT22;52068;50.710;14.492;2023-07-13T06:55:06;26.06;52.21
65472;DHT22;52068;50.710;14.492;2023-07-13T06:57:31;26.06;52.42
65472;DHT22;52068;50.710;14.492;2023-07-13T06:59:57;26.03;52.47
65472;DHT22;52068;50.710;14.492;2023-07-13T07:02:22;26.06;52.63
65472;DHT22;52068;50.710;14.492;2023-07-13T07:04:48;26.03;52.62
65472;DHT22;52068;50.710;14.492;2023-07-13T07:07:13;26.07;52.71
65472;DHT22;52068;50.710;14.492;2023-07-13T07:09:38;26.00;52.85
65472;DHT22;52068;50.710;14.492;2023-07-13T07:12:04;25.96;53.14
65472;DHT22;52068;50.710;14.492;2023-07-13T07:14:30;25.93;52.92
65472;DHT22;52068;50.710;14.492;2023-07-13T07:16:55;25.83;53.17
65472;DHT22;52068;50.710;14.492;2023-07-13T07:19:20;25.82;53.32
65472;DHT22;52068;50.710;14.492;2023-07-13T07:21:46;25.83;53.52
65472;DHT22;52068;50.710;14.492;2023-07-13T07:24:11;25.86;53.16
65472;DHT22;52068;50.710;14.492;2023-07-13T07:26:36;25.86;53.29
65472;DHT22;52068;50.710;14.492;2023-07-13T07:29:02;25.93;53.21
65472;DHT22;52068;50.710;14.492;2023-07-13T07:31:27;25.94;53.08
65472;DHT22;52068;50.710;14.492;2023-07-13T07:33:53;25.92;52.54
65472;DHT22;52068;50.710;14.492;2023-07-13T07:36:18;25.92;52.95
65472;DHT22;52068;50.710;14.492;2023-07-13T07:38:43;25.89;52.70
65472;DHT22;52068;50.710;14.492;2023-07-13T07:41:09;25.76;52.59
65472;DHT22;52068;50.710;14.492;2023-07-13T07:43:35;25.75;52.65
65472;DHT22;52068;50.710;14.492;2023-07-13T07:46:02;25.77;52.63
65472;DHT22;52068;50.710;14.492;2023-07-13T07:48:27;25.79;52.62
65472;DHT22;52068;50.710;14.492;2023-07-13T07:50:52;25.84;52.38
65472;DHT22;52068;50.710;14.492;2023-07-13T07:53:18;25.87;52.02
65472;DHT22;52068;50.710;14.492;2023-07-13T07:55:43;25.86;51.08
65472;DHT22;52068;50.710;14.492;2023-07-13T07:58:09;25.84;51.39
65472;DHT22;52068;50.710;14.492;2023-07-13T08:00:34;25.86;50.94
65472;DHT22;52068;50.710;14.492;2023-07-13T08:03:00;25.89;50.36
65472;DHT22;52068;50.710;14.492;2023-07-13T08:05:26;25.92;50.25
65472;DHT22;52068;50.710;14.492;2023-07-13T08:07:51;25.96;50.32
65472;DHT22;52068;50.710;14.492;2023-07-13T08:10:17;25.98;49.65
65472;DHT22;52068;50.710;14.492;2023-07-13T08:12:42;26.01;49.00
65472;DHT22;52068;50.710;14.492;2023-07-13T08:15:13;26.03;48.84
65472;DHT22;52068;50.710;14.492;2023-07-13T08:17:39;25.93;48.53
65472;DHT22;52068;50.710;14.492;2023-07-13T08:20:05;25.90;49.18
65472;DHT22;52068;50.710;14.492;2023-07-13T08:22:30;25.86;49.76
65472;DHT22;52068;50.710;14.492;2023-07-13T08:24:56;25.87;49.53
65472;DHT22;52068;50.710;14.492;2023-07-13T08:27:25;25.90;49.53
65472;DHT22;52068;50.710;14.492;2023-07-13T08:29:51;25.92;48.46
65472;DHT22;52068;50.710;14.492;2023-07-13T08:32:19;25.93;48.77
65472;DHT22;52068;50.710;14.492;2023-07-13T08:34:45;25.98;48.56
65472;DHT22;52068;50.710;14.492;2023-07-13T08:37:10;26.03;48.50
65472;DHT22;52068;50.710;14.492;2023-07-13T08:39:36;26.06;47.92
65472;DHT22;52068;50.710;14.492;2023-07-13T08:47:55;26.18;47.75
65472;DHT22;52068;50.710;14.492;2023-07-13T08:50:27;26.21;47.44
65472;DHT22;52068;50.710;14.492;2023-07-13T08:52:54;26.20;46.77
65472;DHT22;52068;50.710;14.492;2023-07-13T08:55:22;26.25;47.15
65472;DHT22;52068;50.710;14.492;2023-07-13T08:57:54;26.27;46.95
65472;DHT22;52068;50.710;14.492;2023-07-13T09:00:22;26.30;46.86
65472;DHT22;52068;50.710;14.492;2023-07-13T09:02:55;26.31;47.03
65472;DHT22;52068;50.710;14.492;2023-07-13T09:05:38;26.37;46.79
65472;DHT22;52068;50.710;14.492;2023-07-13T09:08:36;26.35;46.59
65472;DHT22;52068;50.710;14.492;2023-07-13T09:14:42;26.30;45.27
65472;DHT22;52068;50.710;14.492;2023-07-13T09:17:14;26.28;44.70
65472;DHT22;52068;50.710;14.492;2023-07-13T09:19:41;26.27;44.30
65472;DHT22;52068;50.710;14.492;2023-07-13T09:22:11;26.30;44.81
65472;DHT22;52068;50.710;14.492;2023-07-13T09:27:29;26.30;43.44
65472;DHT22;52068;50.710;14.492;2023-07-13T09:30:21;26.25;44.05
65472;DHT22;52068;50.710;14.492;2023-07-13T09:32:51;26.27;43.30
65472;DHT22;52068;50.710;14.492;2023-07-13T09:35:22;26.28;43.91
65472;DHT22;52068;50.710;14.492;2023-07-13T09:37:50;26.30;44.20
65472;DHT22;52068;50.710;14.492;2023-07-13T09:43:28;26.30;43.83
65472;DHT22;52068;50.710;14.492;2023-07-13T09:45:55;26.33;43.08
65472;DHT22;52068;50.710;14.492;2023-07-13T09:48:20;26.33;40.25
65472;DHT22;52068;50.710;14.492;2023-07-13T09:50:46;26.28;41.63
65472;DHT22;52068;50.710;14.492;2023-07-13T09:53:17;26.25;42.18
65472;DHT22;52068;50.710;14.492;2023-07-13T09:55:46;26.30;41.83
65472;DHT22;52068;50.710;14.492;2023-07-13T10:00:40;26.37;42.61
65472;DHT22;52068;50.710;14.492;2023-07-13T10:03:17;26.38;42.00
65472;DHT22;52068;50.710;14.492;2023-07-13T10:05:45;26.43;41.69
65472;DHT22;52068;50.710;14.492;2023-07-13T10:08:19;26.43;41.25
65472;DHT22;52068;50.710;14.492;2023-07-13T10:10:46;26.43;41.03
65472;DHT22;52068;50.710;14.492;2023-07-13T10:15:50;26.48;41.46
65472;DHT22;52068;50.710;14.492;2023-07-13T10:18:16;26.49;41.50
65472;DHT22;52068;50.710;14.492;2023-07-13T10:20:42;26.47;40.17
65472;DHT22;52068;50.710;14.492;2023-07-13T10:23:15;26.43;41.09
65472;DHT22;52068;50.710;14.492;2023-07-13T10:25:46;26.45;41.14
65472;DHT22;52068;50.710;14.492;2023-07-13T10:30:50;26.47;40.76
65472;DHT22;52068;50.710;14.492;2023-07-13T10:33:18;26.48;41.23
65472;DHT22;52068;50.710;14.492;2023-07-13T10:35:43;26.51;41.43
65472;DHT22;52068;50.710;14.492;2023-07-13T10:38:14;26.54;41.67
65472;DHT22;52068;50.710;14.492;2023-07-13T10:40:56;26.55;41.35
65472;DHT22;52068;50.710;14.492;2023-07-13T10:43:28;26.59;40.93
65472;DHT22;52068;50.710;14.492;2023-07-13T10:45:57;26.59;41.95
65472;DHT22;52068;50.710;14.492;2023-07-13T10:48:25;26.59;42.49
65472;DHT22;52068;50.710;14.492;2023-07-13T10:50:52;26.64;42.88
65472;DHT22;52068;50.710;14.492;2023-07-13T10:53:34;26.65;41.92
65472;DHT22;52068;50.710;14.492;2023-07-13T10:56:28;26.64;42.44
65472;DHT22;52068;50.710;14.492;2023-07-13T10:59:14;26.56;42.55
65472;DHT22;52068;50.710;14.492;2023-07-13T11:01:53;26.54;42.55
65472;DHT22;52068;50.710;14.492;2023-07-13T11:04:20;26.58;42.77
65472;DHT22;52068;50.710;14.492;2023-07-13T11:06:47;26.58;42.93
65472;DHT22;52068;50.710;14.492;2023-07-13T11:09:35;26.62;43.31
65472;DHT22;52068;50.710;14.492;2023-07-13T11:12:48;26.62;42.94
65472;DHT22;52068;50.710;14.492;2023-07-13T11:17:48;26.69;42.80
65472;DHT22;52068;50.710;14.492;2023-07-13T11:28:13;26.69;41.86
65472;DHT22;52068;50.710;14.492;2023-07-13T11:36:03;26.71;41.27
65472;DHT22;52068;50.710;14.492;2023-07-13T11:38:38;26.69;40.55
65472;DHT22;52068;50.710;14.492;2023-07-13T11:41:16;26.75;40.44
65472;DHT22;52068;50.710;14.492;2023-07-13T11:43:42;26.76;39.96
65472;DHT22;52068;50.710;14.492;2023-07-13T11:46:22;26.78;40.19
65472;DHT22;52068;50.710;14.492;2023-07-13T11:48:48;26.81;40.67
65472;DHT22;52068;50.710;14.492;2023-07-13T11:51:26;26.81;40.33
65472;DHT22;52068;50.710;14.492;2023-07-13T11:53:54;26.84;40.72
65472;DHT22;52068;50.710;14.492;2023-07-13T11:56:20;26.85;40.90
65472;DHT22;52068;50.710;14.492;2023-07-13T11:58:53;26.85;40.92
65472;DHT22;52068;50.710;14.492;2023-07-13T12:01:28;26.85;39.24
65472;DHT22;52068;50.710;14.492;2023-07-13T12:03:59;26.85;39.89
65472;DHT22;52068;50.710;14.492;2023-07-13T12:06:35;26.85;40.25
65472;DHT22;52068;50.710;14.492;2023-07-13T12:09:13;26.84;40.77
65472;DHT22;52068;50.710;14.492;2023-07-13T12:11:43;26.84;40.51
65472;DHT22;52068;50.710;14.492;2023-07-13T12:14:16;26.85;40.53
65472;DHT22;52068;50.710;14.492;2023-07-13T12:16:41;26.81;40.15
65472;DHT22;52068;50.710;14.492;2023-07-13T12:21:44;26.79;39.36
65472;DHT22;52068;50.710;14.492;2023-07-13T12:24:20;26.78;40.40
65472;DHT22;52068;50.710;14.492;2023-07-13T12:27:06;26.75;40.66
65472;DHT22;52068;50.710;14.492;2023-07-13T12:29:49;26.71;40.37
65472;DHT22;52068;50.710;14.492;2023-07-13T12:32:17;26.71;40.31
65472;DHT22;52068;50.710;14.492;2023-07-13T12:35:13;26.64;38.88
65472;DHT22;52068;50.710;14.492;2023-07-13T12:37:42;26.62;39.85
65472;DHT22;52068;50.710;14.492;2023-07-13T12:40:19;26.59;39.96
65472;DHT22;52068;50.710;14.492;2023-07-13T12:42:47;26.61;40.12
65472;DHT22;52068;50.710;14.492;2023-07-13T12:45:20;26.56;40.15
65472;DHT22;52068;50.710;14.492;2023-07-13T12:47:52;26.51;41.09
65472;DHT22;52068;50.710;14.492;2023-07-13T12:50:20;26.51;40.56
65472;DHT22;52068;50.710;14.492;2023-07-13T12:52:54;26.54;40.93
65472;DHT22;52068;50.710;14.492;2023-07-13T12:55:21;26.58;41.58
65472;DHT22;52068;50.710;14.492;2023-07-13T12:57:55;26.61;40.91
65472;DHT22;52068;50.710;14.492;2023-07-13T13:00:31;26.67;40.21
65472;DHT22;52068;50.710;14.492;2023-07-13T13:03:02;26.69;40.23
65472;DHT22;52068;50.710;14.492;2023-07-13T13:05:29;26.74;39.89
65472;DHT22;52068;50.710;14.492;2023-07-13T13:07:55;26.78;39.95
65472;DHT22;52068;50.710;14.492;2023-07-13T13:10:20;26.84;39.27
65472;DHT22;52068;50.710;14.492;2023-07-13T13:12:46;26.91;39.08
65472;DHT22;52068;50.710;14.492;2023-07-13T13:15:13;26.94;39.66
65472;DHT22;52068;50.710;14.492;2023-07-13T13:17:39;26.99;39.90
65472;DHT22;52068;50.710;14.492;2023-07-13T13:22:39;26.98;39.89
65472;DHT22;52068;50.710;14.492;2023-07-13T13:25:04;26.99;38.62
65472;DHT22;52068;50.710;14.492;2023-07-13T13:27:30;26.95;38.74
65472;DHT22;52068;50.710;14.492;2023-07-13T13:29:57;26.98;38.26
65472;DHT22;52068;50.710;14.492;2023-07-13T13:32:23;26.99;38.11
65472;DHT22;52068;50.710;14.492;2023-07-13T13:34:48;27.00;38.54
65472;DHT22;52068;50.710;14.492;2023-07-13T13:37:21;27.00;38.78
65472;DHT22;52068;50.710;14.492;2023-07-13T13:39:47;27.07;38.99
65472;DHT22;52068;50.710;14.492;2023-07-13T13:42:14;27.12;39.41
65472;DHT22;52068;50.710;14.492;2023-07-13T13:44:39;27.19;39.71
65472;DHT22;52068;50.710;14.492;2023-07-13T13:47:21;27.19;40.01
65472;DHT22;52068;50.710;14.492;2023-07-13T13:49:47;27.22;39.98
65472;DHT22;52068;50.710;14.492;2023-07-13T13:52:13;27.25;39.92
65472;DHT22;52068;50.710;14.492;2023-07-13T13:54:38;27.27;39.95
65472;DHT22;52068;50.710;14.492;2023-07-13T13:57:04;27.29;39.91
65472;DHT22;52068;50.710;14.492;2023-07-13T13:59:30;27.32;39.90
65472;DHT22;52068;50.710;14.492;2023-07-13T14:01:57;27.32;39.88
65472;DHT22;52068;50.710;14.492;2023-07-13T14:04:25;27.35;39.87
65472;DHT22;52068;50.710;14.492;2023-07-13T14:06:50;27.37;39.85
65472;DHT22;52068;50.710;14.492;2023-07-13T14:09:18;27.39;39.89
65472;DHT22;52068;50.710;14.492;2023-07-13T14:11:44;27.44;39.92
65472;DHT22;52068;50.710;14.492;2023-07-13T14:14:16;27.49;39.73
65472;DHT22;52068;50.710;14.492;2023-07-13T14:16:42;27.50;40.14
65472;DHT22;52068;50.710;14.492;2023-07-13T14:19:10;27.57;40.63
65472;DHT22;52068;50.710;14.492;2023-07-13T14:21:36;27.47;41.03
65472;DHT22;52068;50.710;14.492;2023-07-13T14:24:02;27.39;41.23
65472;DHT22;52068;50.710;14.492;2023-07-13T14:26:36;27.25;41.50
65472;DHT22;52068;50.710;14.492;2023-07-13T14:29:02;27.15;41.57
65472;DHT22;52068;50.710;14.492;2023-07-13T14:31:30;27.09;41.79
65472;DHT22;52068;50.710;14.492;2023-07-13T14:33:55;26.99;42.02
65472;DHT22;52068;50.710;14.492;2023-07-13T14:36:26;26.95;42.25
65472;DHT22;52068;50.710;14.492;2023-07-13T14:38:53;26.88;42.39
65472;DHT22;52068;50.710;14.492;2023-07-13T14:41:19;26.81;42.48
65472;DHT22;52068;50.710;14.492;2023-07-13T14:43:45;26.75;42.46
65472;DHT22;52068;50.710;14.492;2023-07-13T14:46:37;26.72;42.50
65472;DHT22;52068;50.710;14.492;2023-07-13T14:49:06;26.67;42.52
65472;DHT22;52068;50.710;14.492;2023-07-13T14:51:35;26.62;42.58
65472;DHT22;52068;50.710;14.492;2023-07-13T14:54:03;26.59;42.59
65472;DHT22;52068;50.710;14.492;2023-07-13T14:56:29;26.56;42.59
65472;DHT22;52068;50.710;14.492;2023-07-13T14:58:55;26.51;42.59
65472;DHT22;52068;50.710;14.492;2023-07-13T15:01:21;26.49;42.83
65472;DHT22;52068;50.710;14.492;2023-07-13T15:03:49;26.45;42.94
65472;DHT22;52068;50.710;14.492;2023-07-13T15:06:16;26.44;43.06
65472;DHT22;52068;50.710;14.492;2023-07-13T15:08:41;26.38;43.12
65472;DHT22;52068;50.710;14.492;2023-07-13T15:11:08;26.35;43.17
65472;DHT22;52068;50.710;14.492;2023-07-13T15:13:33;26.35;43.33
65472;DHT22;52068;50.710;14.492;2023-07-13T15:16:00;26.31;43.09
65472;DHT22;52068;50.710;14.492;2023-07-13T15:18:25;26.28;43.11
65472;DHT22;52068;50.710;14.492;2023-07-13T15:20:52;26.25;43.22
65472;DHT22;52068;50.710;14.492;2023-07-13T15:23:22;26.21;43.28
65472;DHT22;52068;50.710;14.492;2023-07-13T15:25:51;26.18;43.40
65472;DHT22;52068;50.710;14.492;2023-07-13T15:28:17;26.18;43.49
65472;DHT22;52068;50.710;14.492;2023-07-13T15:30:48;26.13;43.59
65472;DHT22;52068;50.710;14.492;2023-07-13T15:33:28;26.13;43.62
65472;DHT22;52068;50.710;14.492;2023-07-13T15:35:54;26.13;43.72
65472;DHT22;52068;50.710;14.492;2023-07-13T15:38:23;26.12;43.85
65472;DHT22;52068;50.710;14.492;2023-07-13T15:40:49;26.12;43.87
65472;DHT22;52068;50.710;14.492;2023-07-13T15:43:16;26.07;43.92
65472;DHT22;52068;50.710;14.492;2023-07-13T15:45:43;26.08;43.96
65472;DHT22;52068;50.710;14.492;2023-07-13T15:48:20;26.07;43.97
65472;DHT22;52068;50.710;14.492;2023-07-13T15:50:51;26.06;43.85
65472;DHT22;52068;50.710;14.492;2023-07-13T15:53:25;26.01;43.77
65472;DHT22;52068;50.710;14.492;2023-07-13T15:55:51;25.97;43.80
65472;DHT22;52068;50.710;14.492;2023-07-13T15:58:18;25.98;43.89
65472;DHT22;52068;50.710;14.492;2023-07-13T16:00:43;25.93;43.90
65472;DHT22;52068;50.710;14.492;2023-07-13T16:03:10;25.92;43.98
65472;DHT22;52068;50.710;14.492;2023-07-13T16:05:35;25.90;43.97